sensor_id;sensor_type;location;lat;lon;timestamp;P1;durP1;ratioP1;P2;durP2;ratioP2
9100;SDS011;4586;52.518;13.486;2024-03-07T00:03:59;65.70;;;26.87;;
9100;SDS011;4586;52.518;13.486;2024-03-07T00:08:01;59.30;;;25.90;;
9100;SDS011;4586;52.518;13.486;2024-03-07T00:12:03;68.37;;;24.87;;
9100;SDS011;4586;52.518;13.486;2024-03-07T00:16:06;65.53;;;26.07;;
9100;SDS011;4586;52.518;13.486;2024-03-07T00:20:08;57.77;;;23.30;;
9100;SDS011;4586;52.518;13.486;2024-03-07T00:24:11;65.43;;;25.07;;
9100;SDS011;4586;52.518;13.486;2024-03-07T00:28:13;61.03;;;24.03;;
9100;SDS011;4586;52.518;13.486;2024-03-07T00:32:15;69.80;;;27.80;;
9100;SDS011;4586;52.518;13.486;2024-03-07T00:36:17;54.93;;;23.83;;
9100;SDS011;4586;52.518;13.486;2024-03-07T00:40:20;56.13;;;23.50;;
9100;SDS011;4586;52.518;13.486;2024-03-07T00:44:22;67.43;;;24.20;;
9100;SDS011;4586;52.518;13.486;2024-03-07T00:48:24;56.93;;;23.20;;
9100;SDS011;4586;52.518;13.486;2024-03-07T00:52:26;62.77;;;24.40;;
9100;SDS011;4586;52.518;13.486;2024-03-07T00:56:28;64.63;;;25.47;;
9100;SDS011;4586;52.518;13.486;2024-03-07T01:00:31;58.47;;;24.90;;
9100;SDS011;4586;52.518;13.486;2024-03-07T01:04:33;59.13;;;23.80;;
9100;SDS011;4586;52.518;13.486;2024-03-07T01:08:35;60.17;;;23.50;;
9100;SDS011;4586;52.518;13.486;2024-03-07T01:12:38;63.40;;;23.77;;
9100;SDS011;4586;52.518;13.486;2024-03-07T01:16:40;62.07;;;26.40;;
9100;SDS011;4586;52.518;13.486;2024-03-07T01:20:42;56.67;;;24.13;;
9100;SDS011;4586;52.518;13.486;2024-03-07T01:24:44;59.97;;;24.20;;
9100;SDS011;4586;52.518;13.486;2024-03-07T01:28:47;62.83;;;25.77;;
9100;SDS011;4586;52.518;13.486;2024-03-07T01:32:49;58.47;;;24.83;;
9100;SDS011;4586;52.518;13.486;2024-03-07T01:36:51;62.40;;;23.97;;
9100;SDS011;4586;52.518;13.486;2024-03-07T01:40:53;56.57;;;24.63;;
9100;SDS011;4586;52.518;13.486;2024-03-07T01:44:55;50.83;;;23.60;;
9100;SDS011;4586;52.518;13.486;2024-03-07T01:48:58;54.20;;;23.00;;
9100;SDS011;4586;52.518;13.486;2024-03-07T01:53:00;56.87;;;22.47;;
9100;SDS011;4586;52.518;13.486;2024-03-07T01:57:03;54.37;;;23.33;;
9100;SDS011;4586;52.518;13.486;2024-03-07T02:01:06;48.03;;;21.90;;
9100;SDS011;4586;52.518;13.486;2024-03-07T02:05:08;51.73;;;22.97;;
9100;SDS011;4586;52.518;13.486;2024-03-07T02:09:10;59.70;;;22.77;;
9100;SDS011;4586;52.518;13.486;2024-03-07T02:13:12;51.87;;;22.23;;
9100;SDS011;4586;52.518;13.486;2024-03-07T02:17:15;45.43;;;20.67;;
9100;SDS011;4586;52.518;13.486;2024-03-07T02:21:17;54.37;;;22.03;;
9100;SDS011;4586;52.518;13.486;2024-03-07T02:25:19;52.87;;;23.30;;
9100;SDS011;4586;52.518;13.486;2024-03-07T02:29:21;52.67;;;22.27;;
9100;SDS011;4586;52.518;13.486;2024-03-07T02:33:23;47.03;;;23.37;;
9100;SDS011;4586;52.518;13.486;2024-03-07T02:37:26;55.53;;;23.27;;
9100;SDS011;4586;52.518;13.486;2024-03-07T02:41:28;55.30;;;24.03;;
9100;SDS011;4586;52.518;13.486;2024-03-07T02:45:30;63.20;;;26.00;;
9100;SDS011;4586;52.518;13.486;2024-03-07T02:49:33;51.70;;;22.53;;
9100;SDS011;4586;52.518;13.486;2024-03-07T02:53:35;57.97;;;24.50;;
9100;SDS011;4586;52.518;13.486;2024-03-07T02:57:37;56.33;;;24.40;;
9100;SDS011;4586;52.518;13.486;2024-03-07T03:01:39;57.03;;;24.83;;
9100;SDS011;4586;52.518;13.486;2024-03-07T03:05:42;55.40;;;25.57;;
9100;SDS011;4586;52.518;13.486;2024-03-07T03:09:44;50.97;;;25.60;;
9100;SDS011;4586;52.518;13.486;2024-03-07T03:13:46;55.40;;;26.00;;
9100;SDS011;4586;52.518;13.486;2024-03-07T03:17:48;60.97;;;24.37;;
9100;SDS011;4586;52.518;13.486;2024-03-07T03:21:51;52.40;;;25.70;;
9100;SDS011;4586;52.518;13.486;2024-03-07T03:25:53;55.50;;;24.10;;
9100;SDS011;4586;52.518;13.486;2024-03-07T03:29:55;50.20;;;23.00;;
9100;SDS011;4586;52.518;13.486;2024-03-07T03:33:57;49.13;;;23.73;;
9100;SDS011;4586;52.518;13.486;2024-03-07T03:37:59;52.87;;;24.07;;
9100;SDS011;4586;52.518;13.486;2024-03-07T03:42:02;49.17;;;23.77;;
9100;SDS011;4586;52.518;13.486;2024-03-07T03:46:04;45.50;;;23.20;;
9100;SDS011;4586;52.518;13.486;2024-03-07T03:50:06;46.83;;;22.60;;
9100;SDS011;4586;52.518;13.486;2024-03-07T03:54:09;42.23;;;20.80;;
9100;SDS011;4586;52.518;13.486;2024-03-07T03:58:11;37.40;;;20.47;;
9100;SDS011;4586;52.518;13.486;2024-03-07T04:02:13;41.23;;;20.43;;
9100;SDS011;4586;52.518;13.486;2024-03-07T04:06:15;34.33;;;19.07;;
9100;SDS011;4586;52.518;13.486;2024-03-07T04:10:17;37.23;;;19.63;;
9100;SDS011;4586;52.518;13.486;2024-03-07T04:14:20;34.00;;;19.37;;
9100;SDS011;4586;52.518;13.486;2024-03-07T04:18:22;33.63;;;19.10;;
9100;SDS011;4586;52.518;13.486;2024-03-07T04:22:25;37.70;;;19.30;;
9100;SDS011;4586;52.518;13.486;2024-03-07T04:26:27;30.63;;;18.20;;
9100;SDS011;4586;52.518;13.486;2024-03-07T04:30:29;36.73;;;18.23;;
9100;SDS011;4586;52.518;13.486;2024-03-07T04:34:31;31.00;;;18.47;;
9100;SDS011;4586;52.518;13.486;2024-03-07T04:38:33;35.87;;;18.40;;
9100;SDS011;4586;52.518;13.486;2024-03-07T04:42:36;36.83;;;18.83;;
9100;SDS011;4586;52.518;13.486;2024-03-07T04:46:38;35.17;;;18.97;;
9100;SDS011;4586;52.518;13.486;2024-03-07T04:50:40;29.70;;;18.00;;
9100;SDS011;4586;52.518;13.486;2024-03-07T04:54:42;30.10;;;17.80;;
9100;SDS011;4586;52.518;13.486;2024-03-07T04:58:44;34.70;;;18.87;;
9100;SDS011;4586;52.518;13.486;2024-03-07T05:02:47;34.47;;;19.60;;
9100;SDS011;4586;52.518;13.486;2024-03-07T05:06:49;35.50;;;18.93;;
9100;SDS011;4586;52.518;13.486;2024-03-07T05:10:52;37.20;;;20.80;;
9100;SDS011;4586;52.518;13.486;2024-03-07T05:14:54;36.77;;;19.87;;
9100;SDS011;4586;52.518;13.486;2024-03-07T05:18:56;33.47;;;19.50;;
9100;SDS011;4586;52.518;13.486;2024-03-07T05:22:59;33.40;;;18.77;;
9100;SDS011;4586;52.518;13.486;2024-03-07T05:27:01;44.33;;;21.70;;
9100;SDS011;4586;52.518;13.486;2024-03-07T05:31:03;42.30;;;21.03;;
9100;SDS011;4586;52.518;13.486;2024-03-07T05:35:06;39.00;;;21.00;;
9100;SDS011;4586;52.518;13.486;2024-03-07T05:39:08;38.17;;;20.00;;
9100;SDS011;4586;52.518;13.486;2024-03-07T05:43:10;38.90;;;20.70;;
9100;SDS011;4586;52.518;13.486;2024-03-07T05:47:12;37.67;;;20.93;;
9100;SDS011;4586;52.518;13.486;2024-03-07T05:51:15;36.83;;;19.97;;
9100;SDS011;4586;52.518;13.486;2024-03-07T05:55:17;30.50;;;17.93;;
9100;SDS011;4586;52.518;13.486;2024-03-07T05:59:19;30.43;;;17.47;;
9100;SDS011;4586;52.518;13.486;2024-03-07T06:03:22;27.13;;;16.27;;
9100;SDS011;4586;52.518;13.486;2024-03-07T06:07:24;30.87;;;18.20;;
9100;SDS011;4586;52.518;13.486;2024-03-07T06:11:26;29.13;;;16.93;;
9100;SDS011;4586;52.518;13.486;2024-03-07T06:15:28;28.10;;;17.27;;
9100;SDS011;4586;52.518;13.486;2024-03-07T06:19:30;28.03;;;16.30;;
9100;SDS011;4586;52.518;13.486;2024-03-07T06:23:33;26.90;;;15.63;;
9100;SDS011;4586;52.518;13.486;2024-03-07T06:27:35;26.90;;;15.20;;
9100;SDS011;4586;52.518;13.486;2024-03-07T06:31:37;24.47;;;14.77;;
9100;SDS011;4586;52.518;13.486;2024-03-07T06:35:39;29.37;;;15.23;;
9100;SDS011;4586;52.518;13.486;2024-03-07T06:39:42;23.80;;;14.20;;
9100;SDS011;4586;52.518;13.486;2024-03-07T06:43:44;24.60;;;15.27;;
9100;SDS011;4586;52.518;13.486;2024-03-07T06:47:46;29.80;;;14.97;;
9100;SDS011;4586;52.518;13.486;2024-03-07T06:51:48;23.23;;;14.37;;
9100;SDS011;4586;52.518;13.486;2024-03-07T06:55:51;20.83;;;12.73;;
9100;SDS011;4586;52.518;13.486;2024-03-07T06:59:53;18.57;;;11.53;;
9100;SDS011;4586;52.518;13.486;2024-03-07T07:03:55;22.43;;;13.30;;
9100;SDS011;4586;52.518;13.486;2024-03-07T07:07:57;27.43;;;17.23;;
9100;SDS011;4586;52.518;13.486;2024-03-07T07:11:59;28.37;;;15.47;;
9100;SDS011;4586;52.518;13.486;2024-03-07T07:16:02;24.03;;;14.87;;
9100;SDS011;4586;52.518;13.486;2024-03-07T07:20:04;30.47;;;16.53;;
9100;SDS011;4586;52.518;13.486;2024-03-07T07:24:07;26.80;;;15.80;;
9100;SDS011;4586;52.518;13.486;2024-03-07T07:28:09;27.37;;;14.03;;
9100;SDS011;4586;52.518;13.486;2024-03-07T07:32:11;23.23;;;12.73;;
9100;SDS011;4586;52.518;13.486;2024-03-07T07:36:14;19.87;;;12.00;;
9100;SDS011;4586;52.518;13.486;2024-03-07T07:40:16;24.33;;;14.43;;
9100;SDS011;4586;52.518;13.486;2024-03-07T07:44:19;20.80;;;12.23;;
9100;SDS011;4586;52.518;13.486;2024-03-07T07:48:21;17.10;;;12.03;;
9100;SDS011;4586;52.518;13.486;2024-03-07T07:52:24;26.23;;;13.33;;
9100;SDS011;4586;52.518;13.486;2024-03-07T07:56:26;19.20;;;12.17;;
9100;SDS011;4586;52.518;13.486;2024-03-07T08:00:28;17.27;;;11.57;;
9100;SDS011;4586;52.518;13.486;2024-03-07T08:04:31;22.10;;;12.10;;
9100;SDS011;4586;52.518;13.486;2024-03-07T08:08:33;20.67;;;12.33;;
9100;SDS011;4586;52.518;13.486;2024-03-07T08:12:36;18.50;;;11.97;;
9100;SDS011;4586;52.518;13.486;2024-03-07T08:16:38;18.10;;;11.33;;
9100;SDS011;4586;52.518;13.486;2024-03-07T08:20:40;20.83;;;11.20;;
9100;SDS011;4586;52.518;13.486;2024-03-07T08:24:43;21.53;;;11.87;;
9100;SDS011;4586;52.518;13.486;2024-03-07T08:28:45;18.30;;;10.67;;
9100;SDS011;4586;52.518;13.486;2024-03-07T08:32:54;18.87;;;12.03;;
9100;SDS011;4586;52.518;13.486;2024-03-07T08:36:57;21.07;;;12.07;;
9100;SDS011;4586;52.518;13.486;2024-03-07T08:40:59;17.60;;;10.40;;
9100;SDS011;4586;52.518;13.486;2024-03-07T08:45:02;21.53;;;13.23;;
9100;SDS011;4586;52.518;13.486;2024-03-07T08:49:04;22.23;;;12.97;;
9100;SDS011;4586;52.518;13.486;2024-03-07T08:53:07;16.70;;;10.10;;
9100;SDS011;4586;52.518;13.486;2024-03-07T08:57:09;17.17;;;10.57;;
9100;SDS011;4586;52.518;13.486;2024-03-07T09:01:11;20.87;;;11.00;;
9100;SDS011;4586;52.518;13.486;2024-03-07T09:05:13;18.50;;;11.30;;
9100;SDS011;4586;52.518;13.486;2024-03-07T09:09:15;16.17;;;10.43;;
9100;SDS011;4586;52.518;13.486;2024-03-07T09:13:18;18.73;;;10.37;;
9100;SDS011;4586;52.518;13.486;2024-03-07T09:17:20;16.93;;;10.13;;
9100;SDS011;4586;52.518;13.486;2024-03-07T09:21:22;16.40;;;9.87;;
9100;SDS011;4586;52.518;13.486;2024-03-07T09:25:24;15.80;;;9.77;;
9100;SDS011;4586;52.518;13.486;2024-03-07T09:29:27;16.40;;;9.67;;
9100;SDS011;4586;52.518;13.486;2024-03-07T09:33:29;12.50;;;8.90;;
9100;SDS011;4586;52.518;13.486;2024-03-07T09:37:31;13.57;;;8.97;;
9100;SDS011;4586;52.518;13.486;2024-03-07T09:41:33;13.40;;;9.27;;
9100;SDS011;4586;52.518;13.486;2024-03-07T09:45:36;17.53;;;9.80;;
9100;SDS011;4586;52.518;13.486;2024-03-07T09:49:39;13.93;;;9.43;;
9100;SDS011;4586;52.518;13.486;2024-03-07T09:53:41;14.23;;;9.13;;
9100;SDS011;4586;52.518;13.486;2024-03-07T09:57:45;14.33;;;8.00;;
9100;SDS011;4586;52.518;13.486;2024-03-07T10:01:48;15.00;;;8.67;;
9100;SDS011;4586;52.518;13.486;2024-03-07T10:05:52;12.53;;;7.60;;
9100;SDS011;4586;52.518;13.486;2024-03-07T10:09:54;14.77;;;9.27;;
9100;SDS011;4586;52.518;13.486;2024-03-07T10:13:57;13.53;;;8.10;;
9100;SDS011;4586;52.518;13.486;2024-03-07T10:17:59;11.53;;;7.83;;
9100;SDS011;4586;52.518;13.486;2024-03-07T10:22:03;15.63;;;9.47;;
9100;SDS011;4586;52.518;13.486;2024-03-07T10:26:05;14.73;;;7.90;;
9100;SDS011;4586;52.518;13.486;2024-03-07T10:30:07;14.27;;;8.33;;
9100;SDS011;4586;52.518;13.486;2024-03-07T10:34:09;14.50;;;9.37;;
9100;SDS011;4586;52.518;13.486;2024-03-07T10:38:12;15.43;;;8.63;;
9100;SDS011;4586;52.518;13.486;2024-03-07T10:42:17;14.97;;;9.63;;
9100;SDS011;4586;52.518;13.486;2024-03-07T10:46:19;11.43;;;7.77;;
9100;SDS011;4586;52.518;13.486;2024-03-07T11:03:13;16.10;;;9.10;;
9100;SDS011;4586;52.518;13.486;2024-03-07T11:07:16;14.40;;;8.67;;
9100;SDS011;4586;52.518;13.486;2024-03-07T11:11:18;29.33;;;18.97;;
9100;SDS011;4586;52.518;13.486;2024-03-07T11:15:20;12.03;;;8.60;;
9100;SDS011;4586;52.518;13.486;2024-03-07T11:19:26;19.03;;;9.37;;
9100;SDS011;4586;52.518;13.486;2024-03-07T11:23:30;13.77;;;8.30;;
9100;SDS011;4586;52.518;13.486;2024-03-07T11:27:42;14.60;;;9.47;;
9100;SDS011;4586;52.518;13.486;2024-03-07T11:31:53;23.67;;;14.50;;
9100;SDS011;4586;52.518;13.486;2024-03-07T11:35:55;9.83;;;6.97;;
9100;SDS011;4586;52.518;13.486;2024-03-07T11:39:57;13.77;;;7.93;;
9100;SDS011;4586;52.518;13.486;2024-03-07T11:43:59;14.97;;;8.13;;
9100;SDS011;4586;52.518;13.486;2024-03-07T11:48:01;13.83;;;8.67;;
9100;SDS011;4586;52.518;13.486;2024-03-07T11:52:04;12.90;;;8.33;;
9100;SDS011;4586;52.518;13.486;2024-03-07T11:56:06;12.37;;;8.23;;
9100;SDS011;4586;52.518;13.486;2024-03-07T12:00:09;13.43;;;7.97;;
9100;SDS011;4586;52.518;13.486;2024-03-07T12:04:15;14.70;;;10.03;;
9100;SDS011;4586;52.518;13.486;2024-03-07T12:08:17;9.37;;;6.33;;
9100;SDS011;4586;52.518;13.486;2024-03-07T12:12:20;13.87;;;8.13;;
9100;SDS011;4586;52.518;13.486;2024-03-07T12:16:22;11.63;;;7.90;;
9100;SDS011;4586;52.518;13.486;2024-03-07T12:20:27;15.50;;;9.57;;
9100;SDS011;4586;52.518;13.486;2024-03-07T12:24:30;14.67;;;9.40;;
9100;SDS011;4586;52.518;13.486;2024-03-07T12:28:32;21.73;;;12.90;;
9100;SDS011;4586;52.518;13.486;2024-03-07T12:32:36;20.93;;;13.57;;
9100;SDS011;4586;52.518;13.486;2024-03-07T12:36:39;10.93;;;7.73;;
9100;SDS011;4586;52.518;13.486;2024-03-07T12:40:41;15.47;;;9.33;;
9100;SDS011;4586;52.518;13.486;2024-03-07T12:44:47;9.27;;;5.43;;
9100;SDS011;4586;52.518;13.486;2024-03-07T12:48:49;13.63;;;9.33;;
9100;SDS011;4586;52.518;13.486;2024-03-07T12:52:52;15.90;;;10.47;;
9100;SDS011;4586;52.518;13.486;2024-03-07T12:56:54;18.87;;;12.97;;
9100;SDS011;4586;52.518;13.486;2024-03-07T13:00:56;16.33;;;10.73;;
9100;SDS011;4586;52.518;13.486;2024-03-07T13:04:59;15.33;;;10.27;;
9100;SDS011;4586;52.518;13.486;2024-03-07T13:09:02;18.87;;;11.63;;
9100;SDS011;4586;52.518;13.486;2024-03-07T13:13:05;18.70;;;11.97;;
9100;SDS011;4586;52.518;13.486;2024-03-07T13:17:07;15.43;;;9.33;;
9100;SDS011;4586;52.518;13.486;2024-03-07T13:21:09;13.83;;;9.40;;
9100;SDS011;4586;52.518;13.486;2024-03-07T13:25:12;14.90;;;9.13;;
9100;SDS011;4586;52.518;13.486;2024-03-07T13:29:15;15.77;;;9.87;;
9100;SDS011;4586;52.518;13.486;2024-03-07T13:33:17;19.50;;;12.43;;
9100;SDS011;4586;52.518;13.486;2024-03-07T13:37:20;19.43;;;11.50;;
9100;SDS011;4586;52.518;13.486;2024-03-07T13:41:22;15.43;;;9.90;;
9100;SDS011;4586;52.518;13.486;2024-03-07T13:45:29;14.10;;;9.57;;
9100;SDS011;4586;52.518;13.486;2024-03-07T13:49:31;15.13;;;10.10;;
9100;SDS011;4586;52.518;13.486;2024-03-07T13:53:34;17.33;;;10.33;;
9100;SDS011;4586;52.518;13.486;2024-03-07T13:57:40;19.20;;;10.50;;
9100;SDS011;4586;52.518;13.486;2024-03-07T14:05:57;15.97;;;9.87;;
9100;SDS011;4586;52.518;13.486;2024-03-07T14:10:11;16.47;;;11.00;;
9100;SDS011;4586;52.518;13.486;2024-03-07T14:19:03;17.63;;;11.10;;
9100;SDS011;4586;52.518;13.486;2024-03-07T14:27:50;16.13;;;10.80;;
9100;SDS011;4586;52.518;13.486;2024-03-07T14:31:55;17.97;;;11.17;;
9100;SDS011;4586;52.518;13.486;2024-03-07T14:35:58;17.53;;;10.57;;
9100;SDS011;4586;52.518;13.486;2024-03-07T14:40:10;19.03;;;11.53;;
9100;SDS011;4586;52.518;13.486;2024-03-07T14:44:17;18.07;;;12.27;;
9100;SDS011;4586;52.518;13.486;2024-03-07T14:48:19;13.73;;;9.80;;
9100;SDS011;4586;52.518;13.486;2024-03-07T14:52:22;16.80;;;10.83;;
9100;SDS011;4586;52.518;13.486;2024-03-07T14:56:24;16.53;;;10.20;;
9100;SDS011;4586;52.518;13.486;2024-03-07T15:00:27;15.93;;;11.07;;
9100;SDS011;4586;52.518;13.486;2024-03-07T15:04:37;17.10;;;10.43;;
9100;SDS011;4586;52.518;13.486;2024-03-07T15:08:40;14.60;;;8.93;;
9100;SDS011;4586;52.518;13.486;2024-03-07T15:12:42;15.27;;;9.57;;
9100;SDS011;4586;52.518;13.486;2024-03-07T15:16:44;15.60;;;9.43;;
9100;SDS011;4586;52.518;13.486;2024-03-07T15:20:47;16.23;;;8.90;;
9100;SDS011;4586;52.518;13.486;2024-03-07T15:24:49;14.40;;;9.03;;
9100;SDS011;4586;52.518;13.486;2024-03-07T15:28:51;18.90;;;12.67;;
9100;SDS011;4586;52.518;13.486;2024-03-07T15:32:54;13.87;;;8.70;;
9100;SDS011;4586;52.518;13.486;2024-03-07T15:36:58;12.50;;;8.17;;
9100;SDS011;4586;52.518;13.486;2024-03-07T15:41:01;12.63;;;8.03;;
9100;SDS011;4586;52.518;13.486;2024-03-07T15:45:03;13.23;;;8.57;;
9100;SDS011;4586;52.518;13.486;2024-03-07T15:49:06;14.83;;;9.53;;
9100;SDS011;4586;52.518;13.486;2024-03-07T15:53:08;15.23;;;9.00;;
9100;SDS011;4586;52.518;13.486;2024-03-07T15:57:10;16.47;;;9.63;;
9100;SDS011;4586;52.518;13.486;2024-03-07T16:01:13;12.57;;;8.40;;
9100;SDS011;4586;52.518;13.486;2024-03-07T16:05:15;15.43;;;9.27;;
9100;SDS011;4586;52.518;13.486;2024-03-07T16:09:17;17.10;;;9.17;;
9100;SDS011;4586;52.518;13.486;2024-03-07T16:13:19;14.33;;;8.97;;
9100;SDS011;4586;52.518;13.486;2024-03-07T16:17:21;16.93;;;9.90;;
9100;SDS011;4586;52.518;13.486;2024-03-07T16:21:24;15.13;;;9.80;;
9100;SDS011;4586;52.518;13.486;2024-03-07T16:25:26;17.27;;;11.47;;
9100;SDS011;4586;52.518;13.486;2024-03-07T16:29:28;15.57;;;10.73;;
9100;SDS011;4586;52.518;13.486;2024-03-07T16:33:31;15.17;;;8.77;;
9100;SDS011;4586;52.518;13.486;2024-03-07T16:37:33;17.23;;;9.40;;
9100;SDS011;4586;52.518;13.486;2024-03-07T16:41:35;14.40;;;10.07;;
9100;SDS011;4586;52.518;13.486;2024-03-07T16:45:37;16.97;;;9.77;;
9100;SDS011;4586;52.518;13.486;2024-03-07T16:49:39;16.40;;;10.73;;
9100;SDS011;4586;52.518;13.486;2024-03-07T16:53:42;14.27;;;9.43;;
9100;SDS011;4586;52.518;13.486;2024-03-07T16:57:45;15.00;;;9.07;;
9100;SDS011;4586;52.518;13.486;2024-03-07T17:01:47;14.73;;;9.90;;
9100;SDS011;4586;52.518;13.486;2024-03-07T17:05:49;15.83;;;10.63;;
9100;SDS011;4586;52.518;13.486;2024-03-07T17:09:52;15.07;;;10.20;;
9100;SDS011;4586;52.518;13.486;2024-03-07T17:13:54;15.00;;;9.77;;
9100;SDS011;4586;52.518;13.486;2024-03-07T17:17:56;15.17;;;9.67;;
9100;SDS011;4586;52.518;13.486;2024-03-07T17:21:58;16.20;;;10.70;;
9100;SDS011;4586;52.518;13.486;2024-03-07T17:26:00;15.27;;;9.60;;
9100;SDS011;4586;52.518;13.486;2024-03-07T17:30:03;17.43;;;10.33;;
9100;SDS011;4586;52.518;13.486;2024-03-07T17:34:06;17.67;;;10.73;;
9100;SDS011;4586;52.518;13.486;2024-03-07T17:38:08;15.37;;;10.07;;
9100;SDS011;4586;52.518;13.486;2024-03-07T17:42:11;18.60;;;9.47;;
9100;SDS011;4586;52.518;13.486;2024-03-07T17:46:13;16.03;;;9.57;;
9100;SDS011;4586;52.518;13.486;2024-03-07T17:50:16;16.50;;;9.80;;
9100;SDS011;4586;52.518;13.486;2024-03-07T17:54:18;16.90;;;11.47;;
9100;SDS011;4586;52.518;13.486;2024-03-07T17:58:20;20.33;;;12.13;;
9100;SDS011;4586;52.518;13.486;2024-03-07T18:02:22;17.70;;;11.10;;
9100;SDS011;4586;52.518;13.486;2024-03-07T18:06:24;22.27;;;11.70;;
9100;SDS011;4586;52.518;13.486;2024-03-07T18:10:27;15.30;;;10.80;;
9100;SDS011;4586;52.518;13.486;2024-03-07T18:14:29;19.47;;;12.10;;
9100;SDS011;4586;52.518;13.486;2024-03-07T18:18:31;15.77;;;10.33;;
9100;SDS011;4586;52.518;13.486;2024-03-07T18:22:34;17.10;;;10.30;;
9100;SDS011;4586;52.518;13.486;2024-03-07T18:26:36;15.77;;;9.83;;
9100;SDS011;4586;52.518;13.486;2024-03-07T18:30:38;18.57;;;11.93;;
9100;SDS011;4586;52.518;13.486;2024-03-07T18:34:41;15.77;;;9.83;;
9100;SDS011;4586;52.518;13.486;2024-03-07T18:38:43;17.03;;;10.30;;
9100;SDS011;4586;52.518;13.486;2024-03-07T18:42:45;20.37;;;9.90;;
9100;SDS011;4586;52.518;13.486;2024-03-07T18:46:47;15.70;;;10.03;;
9100;SDS011;4586;52.518;13.486;2024-03-07T18:50:50;16.83;;;9.40;;
9100;SDS011;4586;52.518;13.486;2024-03-07T18:54:52;17.47;;;10.93;;
9100;SDS011;4586;52.518;13.486;2024-03-07T18:58:54;18.87;;;10.50;;
9100;SDS011;4586;52.518;13.486;2024-03-07T19:03:00;17.87;;;9.60;;
9100;SDS011;4586;52.518;13.486;2024-03-07T19:07:02;16.47;;;9.93;;
9100;SDS011;4586;52.518;13.486;2024-03-07T19:11:05;17.90;;;10.27;;
9100;SDS011;4586;52.518;13.486;2024-03-07T19:15:07;15.97;;;9.57;;
9100;SDS011;4586;52.518;13.486;2024-03-07T19:19:09;16.57;;;10.87;;
9100;SDS011;4586;52.518;13.486;2024-03-07T19:23:12;15.57;;;10.30;;
9100;SDS011;4586;52.518;13.486;2024-03-07T19:27:14;16.20;;;11.07;;
9100;SDS011;4586;52.518;13.486;2024-03-07T19:31:16;17.97;;;10.17;;
9100;SDS011;4586;52.518;13.486;2024-03-07T19:35:18;16.37;;;10.63;;
9100;SDS011;4586;52.518;13.486;2024-03-07T19:39:20;17.10;;;10.70;;
9100;SDS011;4586;52.518;13.486;2024-03-07T19:43:23;19.23;;;10.57;;
9100;SDS011;4586;52.518;13.486;2024-03-07T19:47:26;17.47;;;11.03;;
9100;SDS011;4586;52.518;13.486;2024-03-07T19:51:28;18.00;;;10.00;;
9100;SDS011;4586;52.518;13.486;2024-03-07T19:55:30;19.67;;;11.83;;
9100;SDS011;4586;52.518;13.486;2024-03-07T19:59:33;16.53;;;10.77;;
9100;SDS011;4586;52.518;13.486;2024-03-07T20:03:35;20.10;;;11.10;;
9100;SDS011;4586;52.518;13.486;2024-03-07T20:07:37;18.07;;;11.17;;
9100;SDS011;4586;52.518;13.486;2024-03-07T20:11:39;18.57;;;11.87;;
9100;SDS011;4586;52.518;13.486;2024-03-07T20:15:42;18.00;;;10.93;;
9100;SDS011;4586;52.518;13.486;2024-03-07T20:19:45;15.80;;;10.83;;
9100;SDS011;4586;52.518;13.486;2024-03-07T20:23:47;18.73;;;11.43;;
9100;SDS011;4586;52.518;13.486;2024-03-07T20:27:50;20.07;;;10.73;;
9100;SDS011;4586;52.518;13.486;2024-03-07T20:31:52;17.43;;;10.87;;
9100;SDS011;4586;52.518;13.486;2024-03-07T20:35:54;17.23;;;11.20;;
9100;SDS011;4586;52.518;13.486;2024-03-07T20:39:57;18.27;;;10.80;;
9100;SDS011;4586;52.518;13.486;2024-03-07T20:44:11;23.00;;;13.50;;
9100;SDS011;4586;52.518;13.486;2024-03-07T20:48:13;17.70;;;10.50;;
9100;SDS011;4586;52.518;13.486;2024-03-07T20:52:16;20.70;;;12.17;;
9100;SDS011;4586;52.518;13.486;2024-03-07T20:56:18;18.23;;;10.87;;
9100;SDS011;4586;52.518;13.486;2024-03-07T21:00:21;21.57;;;12.23;;
9100;SDS011;4586;52.518;13.486;2024-03-07T21:04:23;21.50;;;13.23;;
9100;SDS011;4586;52.518;13.486;2024-03-07T21:08:25;18.13;;;11.60;;
9100;SDS011;4586;52.518;13.486;2024-03-07T21:12:27;22.73;;;12.57;;
9100;SDS011;4586;52.518;13.486;2024-03-07T21:16:30;20.97;;;12.30;;
9100;SDS011;4586;52.518;13.486;2024-03-07T21:20:32;20.37;;;11.03;;
9100;SDS011;4586;52.518;13.486;2024-03-07T21:24:35;20.37;;;12.17;;
9100;SDS011;4586;52.518;13.486;2024-03-07T21:28:37;18.47;;;11.57;;
9100;SDS011;4586;52.518;13.486;2024-03-07T21:32:40;18.10;;;11.23;;
9100;SDS011;4586;52.518;13.486;2024-03-07T21:36:42;21.30;;;11.70;;
9100;SDS011;4586;52.518;13.486;2024-03-07T21:40:45;18.33;;;12.30;;
9100;SDS011;4586;52.518;13.486;2024-03-07T21:44:47;21.97;;;12.53;;
9100;SDS011;4586;52.518;13.486;2024-03-07T21:48:49;15.90;;;10.73;;
9100;SDS011;4586;52.518;13.486;2024-03-07T21:52:51;16.57;;;11.00;;
9100;SDS011;4586;52.518;13.486;2024-03-07T21:56:53;21.47;;;12.70;;
9100;SDS011;4586;52.518;13.486;2024-03-07T22:00:56;17.90;;;11.40;;
9100;SDS011;4586;52.518;13.486;2024-03-07T22:04:58;19.80;;;12.73;;
9100;SDS011;4586;52.518;13.486;2024-03-07T22:09:03;19.17;;;10.83;;
9100;SDS011;4586;52.518;13.486;2024-03-07T22:13:05;19.77;;;11.83;;
9100;SDS011;4586;52.518;13.486;2024-03-07T22:17:08;23.17;;;12.03;;
9100;SDS011;4586;52.518;13.486;2024-03-07T22:21:10;20.07;;;11.87;;
9100;SDS011;4586;52.518;13.486;2024-03-07T22:25:12;21.33;;;12.90;;
9100;SDS011;4586;52.518;13.486;2024-03-07T22:29:14;23.33;;;12.17;;
9100;SDS011;4586;52.518;13.486;2024-03-07T22:33:17;17.97;;;11.03;;
9100;SDS011;4586;52.518;13.486;2024-03-07T22:37:19;21.60;;;12.63;;
9100;SDS011;4586;52.518;13.486;2024-03-07T22:41:22;19.93;;;12.23;;
9100;SDS011;4586;52.518;13.486;2024-03-07T22:45:24;20.73;;;12.67;;
9100;SDS011;4586;52.518;13.486;2024-03-07T22:49:26;21.03;;;13.37;;
9100;SDS011;4586;52.518;13.486;2024-03-07T22:53:28;19.43;;;11.57;;
9100;SDS011;4586;52.518;13.486;2024-03-07T22:57:30;21.43;;;13.10;;
9100;SDS011;4586;52.518;13.486;2024-03-07T23:01:33;21.93;;;12.10;;
9100;SDS011;4586;52.518;13.486;2024-03-07T23:05:35;22.63;;;12.37;;
9100;SDS011;4586;52.518;13.486;2024-03-07T23:09:38;19.77;;;12.33;;
9100;SDS011;4586;52.518;13.486;2024-03-07T23:13:40;22.03;;;13.10;;
9100;SDS011;4586;52.518;13.486;2024-03-07T23:17:42;19.30;;;12.07;;
9100;SDS011;4586;52.518;13.486;2024-03-07T23:21:45;22.03;;;12.83;;
9100;SDS011;4586;52.518;13.486;2024-03-07T23:25:48;20.23;;;12.00;;
9100;SDS011;4586;52.518;13.486;2024-03-07T23:29:50;20.37;;;12.73;;
9100;SDS011;4586;52.518;13.486;2024-03-07T23:33:52;20.47;;;13.07;;
9100;SDS011;4586;52.518;13.486;2024-03-07T23:37:54;20.47;;;12.10;;
9100;SDS011;4586;52.518;13.486;2024-03-07T23:41:57;24.40;;;13.50;;
9100;SDS011;4586;52.518;13.486;2024-03-07T23:45:59;19.23;;;12.47;;
9100;SDS011;4586;52.518;13.486;2024-03-07T23:50:01;22.83;;;12.63;;
9100;SDS011;4586;52.518;13.486;2024-03-07T23:54:04;23.13;;;13.37;;
9100;SDS011;4586;52.518;13.486;2024-03-07T23:58:06;23.93;;;13.37;;
